createdAt,value
2022-08-16T00:01:21.725Z,99443.63
2022-08-16T00:03:51.708Z,99446.31
2022-08-16T00:06:18.671Z,99440.91
2022-08-16T00:08:46.087Z,99437.38
2022-08-16T00:11:15.399Z,99446.06
2022-08-16T00:13:53.139Z,99437.22
2022-08-16T00:17:05.595Z,99435.22
2022-08-16T00:19:14.824Z,99443.59
2022-08-16T00:21:42.917Z,99441.94
2022-08-16T00:24:11.496Z,99450.34
2022-08-16T00:26:44.173Z,99443.78
2022-08-16T00:29:15.515Z,99447.56
2022-08-16T00:31:47.206Z,99445.72
2022-08-16T00:34:43.895Z,99445.63
2022-08-16T00:37:17.298Z,99434.53
2022-08-16T00:39:46.955Z,99443.03
2022-08-16T00:42:14.432Z,99443.53
2022-08-16T00:45:16.548Z,99439.00
2022-08-16T00:47:49.037Z,99448.88
2022-08-16T00:50:20.163Z,99450.94
2022-08-16T00:52:51.006Z,99441.75
2022-08-16T00:55:20.123Z,99456.50
2022-08-16T00:57:59.195Z,99453.13
2022-08-16T01:00:29.632Z,99457.88
2022-08-16T01:02:59.593Z,99448.25
2022-08-16T01:05:26.161Z,99444.22
2022-08-16T01:07:54.101Z,99437.84
2022-08-16T01:10:32.226Z,99454.66
2022-08-16T01:13:15.202Z,99444.63
2022-08-16T01:15:57.579Z,99444.34
2022-08-16T01:18:40.456Z,99450.78
2022-08-16T01:21:16.752Z,99452.66
2022-08-16T01:24:51.429Z,99456.00
2022-08-16T01:27:07.233Z,99449.00
2022-08-16T01:29:57.614Z,99449.28
2022-08-16T01:32:31.579Z,99452.50
2022-08-16T01:35:01.185Z,99450.78
2022-08-16T01:37:35.645Z,99439.75
2022-08-16T01:40:07.247Z,99451.03
2022-08-16T01:42:34.150Z,99454.94
2022-08-16T01:45:00.642Z,99455.44
2022-08-16T01:47:29.308Z,99464.09
2022-08-16T01:50:42.686Z,99454.00
2022-08-16T01:52:46.346Z,99455.50
2022-08-16T01:55:13.153Z,99455.72
2022-08-16T01:57:41.074Z,99456.56
2022-08-16T02:00:20.823Z,99452.19
2022-08-16T02:02:56.330Z,99452.06
2022-08-16T02:05:23.513Z,99449.50
2022-08-16T02:07:52.080Z,99452.94
2022-08-16T02:10:20.166Z,99452.88
2022-08-16T02:12:52.585Z,99460.75
2022-08-16T02:15:28.343Z,99453.44
2022-08-16T02:17:56.635Z,99457.28
2022-08-16T02:20:26.299Z,99453.78
2022-08-16T02:22:55.547Z,99457.47
2022-08-16T02:25:23.218Z,99457.38
2022-08-16T02:27:51.508Z,99447.91
2022-08-16T02:30:37.533Z,99448.78
2022-08-16T02:33:10.741Z,99455.13
2022-08-16T02:35:53.690Z,99451.91
2022-08-16T02:38:22.741Z,99451.91
2022-08-16T02:40:50.500Z,99447.91
2022-08-16T02:43:16.987Z,99441.47
2022-08-16T02:45:43.695Z,99444.50
2022-08-16T02:48:28.363Z,99443.53
2022-08-16T02:51:06.477Z,99450.00
2022-08-16T02:53:40.921Z,99445.47
2022-08-16T02:56:12.004Z,99449.75
2022-08-16T02:58:41.704Z,99442.66
2022-08-16T03:01:24.404Z,99444.09
2022-08-16T03:04:39.780Z,99448.78
2022-08-16T03:06:47.705Z,99452.56
2022-08-16T03:09:16.416Z,99442.28
2022-08-16T03:11:43.273Z,99454.97
2022-08-16T03:14:11.409Z,99446.91
2022-08-16T03:16:42.171Z,99449.59
2022-08-16T03:19:25.348Z,99452.78
2022-08-16T03:21:51.963Z,99452.28
2022-08-16T03:24:27.591Z,99456.44
2022-08-16T03:26:59.030Z,99455.38
2022-08-16T03:29:30.354Z,99458.69
2022-08-16T03:31:58.998Z,99456.34
2022-08-16T03:34:26.602Z,99451.94
2022-08-16T03:36:53.474Z,99455.38
2022-08-16T03:39:20.653Z,99460.63
2022-08-16T03:41:50.464Z,99460.97
2022-08-16T03:44:43.800Z,99463.09
2022-08-16T03:47:10.303Z,99462.16
2022-08-16T03:49:37.563Z,99462.25
2022-08-16T03:52:05.528Z,99460.63
2022-08-16T03:54:32.028Z,99463.41
2022-08-16T03:57:02.276Z,99467.50
2022-08-16T03:59:31.550Z,99469.53
2022-08-16T04:02:03.429Z,99462.75
2022-08-16T04:04:36.011Z,99473.38
2022-08-16T04:07:06.943Z,99469.06
2022-08-16T04:09:35.661Z,99471.31
2022-08-16T04:12:10.561Z,99476.13
2022-08-16T04:14:46.747Z,99467.09
2022-08-16T04:17:15.718Z,99472.06
2022-08-16T04:19:45.611Z,99467.47
2022-08-16T04:22:13.124Z,99468.38
2022-08-16T04:24:39.725Z,99472.69
2022-08-16T04:27:08.940Z,99473.44
2022-08-16T04:29:44.175Z,99477.31
2022-08-16T04:32:13.874Z,99477.19
2022-08-16T04:34:40.531Z,99480.75
2022-08-16T04:37:07.513Z,99476.88
2022-08-16T04:39:45.006Z,99479.06
2022-08-16T04:42:14.440Z,99474.16
2022-08-16T04:44:53.496Z,99479.66
2022-08-16T04:47:31.724Z,99476.44
2022-08-16T04:49:59.939Z,99479.28
2022-08-16T04:52:34.532Z,99485.38
2022-08-16T04:55:08.685Z,99487.25
2022-08-16T04:57:36.792Z,99494.56
2022-08-16T05:00:32.848Z,99496.94
2022-08-16T05:02:56.155Z,99495.97
2022-08-16T05:05:25.151Z,99502.22
2022-08-16T05:08:00.369Z,99503.88
2022-08-16T05:10:29.442Z,99502.25
2022-08-16T05:13:00.903Z,99498.84
2022-08-16T05:15:29.865Z,99495.06
2022-08-16T05:17:59.792Z,99495.16
2022-08-16T05:20:38.395Z,99493.94
2022-08-16T05:23:19.167Z,99503.97
2022-08-16T05:25:47.820Z,99499.56
2022-08-16T05:28:15.943Z,99499.81
2022-08-16T05:30:43.103Z,99501.06
2022-08-16T05:33:16.731Z,99499.38
2022-08-16T05:35:54.528Z,99510.41
2022-08-16T05:38:32.228Z,99515.72
2022-08-16T05:41:01.245Z,99521.75
2022-08-16T05:43:31.956Z,99521.31
2022-08-16T05:46:00.239Z,99516.63
2022-08-16T05:48:26.874Z,99526.03
2022-08-16T05:50:54.071Z,99531.81
2022-08-16T05:53:20.756Z,99531.09
2022-08-16T05:55:51.035Z,99538.75
2022-08-16T05:58:31.697Z,99533.53
2022-08-16T06:00:59.699Z,99532.72
2022-08-16T06:03:26.192Z,99524.28
2022-08-16T06:05:56.143Z,99534.94
2022-08-16T06:08:31.825Z,99539.44
2022-08-16T06:11:09.829Z,99551.97
2022-08-16T06:13:37.847Z,99549.94
2022-08-16T06:16:09.486Z,99544.63
2022-08-16T06:18:45.197Z,99553.03
2022-08-16T06:21:13.020Z,99545.81
2022-08-16T06:23:49.612Z,99549.75
2022-08-16T06:26:20.887Z,99547.53
2022-08-16T06:28:47.501Z,99543.97
2022-08-16T06:31:15.886Z,99547.94
2022-08-16T06:33:44.696Z,99546.56
2022-08-16T06:36:14.211Z,99551.50
2022-08-16T06:38:55.305Z,99547.41
2022-08-16T06:41:24.203Z,99545.31
2022-08-16T06:43:53.785Z,99545.75
2022-08-16T06:46:34.093Z,99546.06
2022-08-16T06:49:05.964Z,99546.66
2022-08-16T06:51:46.407Z,99546.66
2022-08-16T06:54:15.717Z,99540.28
2022-08-16T06:56:42.526Z,99534.53
2022-08-16T06:59:10.182Z,99536.53
2022-08-16T07:01:45.010Z,99541.22
2022-08-16T07:04:31.625Z,99545.78
2022-08-16T07:06:59.722Z,99549.97
2022-08-16T07:09:29.739Z,99550.94
2022-08-16T07:12:05.349Z,99556.13
2022-08-16T07:14:33.565Z,99554.81
2022-08-16T07:17:02.149Z,99549.97
2022-08-16T07:20:02.134Z,99555.84
2022-08-16T07:22:38.945Z,99547.97
2022-08-16T07:25:12.054Z,99534.66
2022-08-16T07:27:39.996Z,99537.91
2022-08-16T07:30:39.635Z,99528.25
2022-08-16T07:32:58.320Z,99522.09
2022-08-16T07:35:24.865Z,99528.94
2022-08-16T07:37:51.809Z,99530.34
2022-08-16T07:40:18.907Z,99522.34
2022-08-16T07:42:52.344Z,99533.22
2022-08-16T07:45:19.310Z,99531.50
2022-08-16T07:47:46.012Z,99538.94
2022-08-16T07:50:55.837Z,99542.84
2022-08-16T07:53:04.313Z,99540.19
2022-08-16T07:55:45.662Z,99541.03
2022-08-16T07:58:18.505Z,99547.38
2022-08-16T08:01:01.715Z,99551.66
2022-08-16T08:03:35.858Z,99550.50
2022-08-16T08:06:06.172Z,99550.34
2022-08-16T08:08:50.876Z,99554.00
2022-08-16T08:11:18.463Z,99551.56
2022-08-16T08:13:44.962Z,99549.25
2022-08-16T08:16:18.803Z,99555.28
2022-08-16T08:18:50.645Z,99552.34
2022-08-16T08:21:59.746Z,99556.66
2022-08-16T08:24:15.420Z,99553.50
2022-08-16T08:26:42.988Z,99545.47
2022-08-16T08:29:09.709Z,99549.06
2022-08-16T08:31:40.790Z,99548.78
2022-08-16T08:34:07.218Z,99553.66
2022-08-16T08:36:37.049Z,99572.81
2022-08-16T08:39:12.757Z,99563.22
2022-08-16T08:41:42.503Z,99560.41
2022-08-16T08:44:27.983Z,99563.59
2022-08-16T08:47:00.250Z,99572.38
2022-08-16T08:49:46.370Z,99573.22
2022-08-16T08:52:34.655Z,99574.75
2022-08-16T08:55:10.780Z,99571.97
2022-08-16T08:57:39.670Z,99566.09
2022-08-16T09:00:13.897Z,99568.22
2022-08-16T09:02:51.704Z,99568.84
2022-08-16T09:05:21.020Z,99574.78
2022-08-16T09:08:00.330Z,99572.19
2022-08-16T09:10:29.470Z,99569.00
2022-08-16T09:12:57.015Z,99569.25
2022-08-16T09:15:23.877Z,99569.63
2022-08-16T09:17:54.694Z,99569.16
2022-08-16T09:20:23.709Z,99578.38
2022-08-16T09:22:53.051Z,99572.19
2022-08-16T09:25:26.344Z,99568.78
2022-08-16T09:28:02.743Z,99579.75
2022-08-16T09:30:43.996Z,99583.16
2022-08-16T09:33:14.470Z,99566.41
2022-08-16T09:35:42.743Z,99576.63
2022-08-16T09:38:12.224Z,99568.13
2022-08-16T09:40:43.012Z,99568.84
2022-08-16T09:43:53.182Z,99571.03
2022-08-16T09:46:48.359Z,99566.63
2022-08-16T09:48:56.544Z,99569.66
2022-08-16T09:51:26.166Z,99562.03
2022-08-16T09:53:57.513Z,99570.72
2022-08-16T09:56:31.815Z,99566.25
2022-08-16T09:59:05.258Z,99567.81
2022-08-16T10:01:36.506Z,99561.06
2022-08-16T10:04:04.506Z,99563.88
2022-08-16T10:06:33.392Z,99555.50
2022-08-16T10:09:05.177Z,99567.75
2022-08-16T10:11:52.932Z,99562.59
2022-08-16T10:14:32.707Z,99564.47
2022-08-16T10:17:05.157Z,99558.69
2022-08-16T10:19:32.564Z,99567.59
2022-08-16T10:21:59.839Z,99558.53
2022-08-16T10:24:32.685Z,99555.56
2022-08-16T10:27:26.530Z,99554.19
2022-08-16T10:30:01.490Z,99548.03
2022-08-16T10:32:33.391Z,99549.97
2022-08-16T10:35:00.461Z,99551.09
2022-08-16T10:37:35.951Z,99549.41
2022-08-16T10:40:28.284Z,99555.63
2022-08-16T10:42:56.711Z,99555.50
2022-08-16T10:45:23.169Z,99547.00
2022-08-16T10:47:58.893Z,99552.25
2022-08-16T10:50:29.277Z,99554.72
2022-08-16T10:52:59.465Z,99549.78
2022-08-16T10:55:45.068Z,99549.78
2022-08-16T10:58:16.950Z,99556.88
2022-08-16T11:00:46.330Z,99556.44
2022-08-16T11:06:06.049Z,99562.66
2022-08-16T11:08:36.616Z,99559.88
2022-08-16T11:11:11.380Z,99544.84
2022-08-16T11:16:26.620Z,99548.25
2022-08-16T11:19:06.139Z,99557.69
2022-08-16T11:22:22.512Z,99557.69
2022-08-16T11:24:42.657Z,99560.31
2022-08-16T11:27:20.443Z,99553.75
2022-08-16T11:29:52.911Z,99554.41
2022-08-16T11:32:22.619Z,99565.34
2022-08-16T11:35:14.137Z,99562.81
2022-08-16T11:40:37.699Z,99557.91
2022-08-16T11:43:06.367Z,99552.03
2022-08-16T11:45:35.082Z,99554.66
2022-08-16T11:48:05.577Z,99563.94
2022-08-16T11:50:33.590Z,99557.34
2022-08-16T11:53:02.451Z,99556.38
2022-08-16T11:55:30.981Z,99549.34
2022-08-16T11:57:57.635Z,99548.81
2022-08-16T12:00:33.502Z,99546.06
2022-08-16T12:03:11.042Z,99539.88
2022-08-16T12:05:39.597Z,99539.34
2022-08-16T12:08:07.088Z,99544.25
2022-08-16T12:10:35.470Z,99542.13
2022-08-16T12:13:02.795Z,99541.88
2022-08-16T12:15:30.980Z,99546.25
2022-08-16T12:17:59.252Z,99540.59
2022-08-16T12:20:32.782Z,99544.94
2022-08-16T12:22:59.858Z,99548.25
2022-08-16T12:25:29.517Z,99541.91
2022-08-16T12:27:57.182Z,99542.28
2022-08-16T12:30:30.397Z,99538.88
2022-08-16T12:33:03.161Z,99536.38
2022-08-16T12:35:32.509Z,99536.84
2022-08-16T12:38:00.777Z,99543.28
2022-08-16T12:40:41.922Z,99538.56
2022-08-16T12:43:11.028Z,99532.88
2022-08-16T12:45:41.287Z,99530.81
2022-08-16T12:48:33.624Z,99534.97
2022-08-16T12:51:13.374Z,99529.88
2022-08-16T12:53:47.197Z,99530.50
2022-08-16T12:56:14.221Z,99530.72
2022-08-16T12:58:48.583Z,99523.44
2022-08-16T13:01:22.979Z,99524.50
2022-08-16T13:03:55.900Z,99524.50
2022-08-16T13:06:36.615Z,99528.41
2022-08-16T13:09:19.975Z,99522.91
2022-08-16T13:12:00.106Z,99517.22
2022-08-16T13:14:32.290Z,99515.16
2022-08-16T13:17:02.162Z,99511.19
2022-08-16T13:19:44.225Z,99503.25
2022-08-16T13:22:19.773Z,99499.22
2022-08-16T13:24:46.659Z,99508.88
2022-08-16T13:27:13.497Z,99516.16
2022-08-16T13:29:43.687Z,99513.72
2022-08-16T13:32:40.070Z,99507.13
2022-08-16T13:34:58.079Z,99507.78
2022-08-16T13:37:27.603Z,99506.47
2022-08-16T13:39:54.432Z,99504.56
2022-08-16T13:42:21.429Z,99509.13
2022-08-16T13:44:56.344Z,99502.34
2022-08-16T13:47:25.749Z,99503.00
2022-08-16T13:49:56.943Z,99492.06
2022-08-16T13:52:24.988Z,99505.44
2022-08-16T13:54:51.760Z,99503.66
2022-08-16T13:57:18.178Z,99492.91
2022-08-16T13:59:46.939Z,99494.00
2022-08-16T14:02:17.173Z,99501.22
2022-08-16T14:04:44.756Z,99495.91
2022-08-16T14:07:20.131Z,99493.28
2022-08-16T14:09:51.141Z,99492.41
2022-08-16T14:12:25.600Z,99500.38
2022-08-16T14:14:56.397Z,99497.81
2022-08-16T14:17:25.323Z,99488.72
2022-08-16T14:19:52.653Z,99479.19
2022-08-16T14:22:35.819Z,99490.69
2022-08-16T14:25:10.239Z,99484.00
2022-08-16T14:27:38.958Z,99479.69
2022-08-16T14:30:15.467Z,99486.16
2022-08-16T14:32:46.765Z,99478.06
2022-08-16T14:35:29.387Z,99479.19
2022-08-16T14:38:04.114Z,99482.06
2022-08-16T14:40:31.245Z,99482.09
2022-08-16T14:42:57.782Z,99475.47
2022-08-16T14:45:32.358Z,99476.25
2022-08-16T14:47:59.890Z,99473.91
2022-08-16T14:50:27.413Z,99472.84
2022-08-16T14:53:00.774Z,99479.53
2022-08-16T14:55:29.361Z,99466.56
2022-08-16T14:57:56.201Z,99463.19
2022-08-16T15:00:32.764Z,99467.88
2022-08-16T15:03:05.786Z,99467.31
2022-08-16T15:05:32.560Z,99467.34
2022-08-16T15:07:59.416Z,99460.91
2022-08-16T15:10:29.416Z,99461.50
2022-08-16T15:13:00.781Z,99462.00
2022-08-16T15:15:30.223Z,99463.94
2022-08-16T15:17:57.471Z,99467.63
2022-08-16T15:20:29.156Z,99468.03
2022-08-16T15:22:56.889Z,99461.28
2022-08-16T15:25:29.663Z,99458.72
2022-08-16T15:27:57.242Z,99446.22
2022-08-16T15:30:57.126Z,99457.38
2022-08-16T15:33:17.338Z,99460.47
2022-08-16T15:35:44.935Z,99453.97
2022-08-16T15:38:58.190Z,99445.47
2022-08-16T15:40:59.464Z,99456.94
2022-08-16T15:43:33.930Z,99453.47
2022-08-16T15:46:54.798Z,99453.59
2022-08-16T15:49:22.702Z,99448.81
2022-08-16T15:51:51.789Z,99463.53
2022-08-16T15:54:29.875Z,99467.16
2022-08-16T15:57:05.940Z,99464.38
2022-08-16T15:59:48.768Z,99458.88
2022-08-16T16:02:27.361Z,99459.13
2022-08-16T16:04:54.377Z,99465.94
2022-08-16T16:07:22.333Z,99469.06
2022-08-16T16:09:48.879Z,99467.31
2022-08-16T16:12:50.184Z,99468.50
2022-08-16T16:15:06.422Z,99462.47
2022-08-16T16:17:33.911Z,99459.38
2022-08-16T16:20:03.882Z,99465.81
2022-08-16T16:22:30.529Z,99455.19
2022-08-16T16:24:57.049Z,99452.94
2022-08-16T16:27:23.931Z,99458.56
2022-08-16T16:30:01.606Z,99454.28
2022-08-16T16:32:34.438Z,99448.56
2022-08-16T16:35:06.141Z,99451.31
2022-08-16T16:37:33.364Z,99448.28
2022-08-16T16:40:00.159Z,99453.59
2022-08-16T16:42:29.531Z,99452.25
2022-08-16T16:45:01.221Z,99443.28
2022-08-16T16:47:28.961Z,99449.72
2022-08-16T16:49:55.368Z,99445.47
2022-08-16T16:52:31.247Z,99448.69
2022-08-16T16:55:09.381Z,99447.38
2022-08-16T16:57:55.116Z,99445.78
2022-08-16T17:00:29.872Z,99446.09
2022-08-16T17:02:57.304Z,99446.19
2022-08-16T17:05:29.323Z,99437.41
2022-08-16T17:07:59.680Z,99440.59
2022-08-16T17:10:46.690Z,99447.31
2022-08-16T17:13:14.514Z,99444.91
2022-08-16T17:15:41.749Z,99442.69
2022-08-16T17:19:15.765Z,99440.28
2022-08-16T17:20:54.595Z,99437.22
2022-08-16T17:23:21.233Z,99449.13
2022-08-16T17:26:10.526Z,99440.22
2022-08-16T17:29:00.215Z,99441.13
2022-08-16T17:34:29.281Z,99442.72
2022-08-16T17:36:59.528Z,99440.72
2022-08-16T17:39:28.284Z,99444.56
2022-08-16T17:39:29.604Z,99440.13
2022-08-16T17:41:58.728Z,99444.88
2022-08-16T17:44:25.271Z,99435.41
2022-08-16T17:46:53.116Z,99443.06
2022-08-16T17:49:20.698Z,99447.59
2022-08-16T17:51:47.275Z,99449.50
2022-08-16T17:54:22.146Z,99444.38
2022-08-16T17:57:00.517Z,99443.31
2022-08-16T17:59:28.132Z,99453.59
2022-08-16T18:01:55.317Z,99449.94
2022-08-16T18:04:48.934Z,99456.44
2022-08-16T18:07:08.385Z,99450.34
2022-08-16T18:09:36.884Z,99455.41
2022-08-16T18:12:30.671Z,99459.38
2022-08-16T18:15:09.527Z,99450.25
2022-08-16T18:17:36.004Z,99450.38
2022-08-16T18:20:03.392Z,99454.72
2022-08-16T18:22:32.025Z,99457.72
2022-08-16T18:24:58.543Z,99452.97
2022-08-16T18:27:27.325Z,99453.88
2022-08-16T18:29:54.613Z,99456.31
2022-08-16T18:32:24.288Z,99461.09
2022-08-16T18:34:52.880Z,99464.72
2022-08-16T18:37:21.206Z,99461.66
2022-08-16T18:39:47.667Z,99455.59
2022-08-16T18:42:15.246Z,99453.63
2022-08-16T18:44:43.626Z,99449.88
2022-08-16T18:47:10.237Z,99458.41
2022-08-16T18:49:36.762Z,99457.69
2022-08-16T18:52:04.021Z,99468.41
2022-08-16T18:54:32.505Z,99469.06
2022-08-16T18:56:59.021Z,99469.22
2022-08-16T18:59:30.192Z,99462.63
2022-08-16T19:02:00.493Z,99467.22
2022-08-16T19:04:56.349Z,99466.47
2022-08-16T19:07:23.059Z,99477.44
2022-08-16T19:09:57.123Z,99475.72
2022-08-16T19:12:37.758Z,99479.91
2022-08-16T19:15:23.025Z,99477.06
2022-08-16T19:17:49.421Z,99477.47
2022-08-16T19:20:18.572Z,99480.53
2022-08-16T19:23:04.657Z,99485.06
2022-08-16T19:25:47.676Z,99487.56
2022-08-16T19:28:50.873Z,99492.00
2022-08-16T19:31:17.931Z,99477.84
2022-08-16T19:33:53.567Z,99490.69
2022-08-16T19:36:31.068Z,99489.47
2022-08-16T19:39:04.385Z,99498.00
2022-08-16T19:41:34.054Z,99501.34
2022-08-16T19:44:00.532Z,99500.06
2022-08-16T19:46:26.968Z,99502.97
2022-08-16T19:48:53.376Z,99507.75
2022-08-16T19:51:19.898Z,99507.19
2022-08-16T19:53:46.285Z,99504.44
2022-08-16T19:56:12.712Z,99510.16
2022-08-16T19:58:51.029Z,99509.75
2022-08-16T20:01:25.519Z,99518.44
2022-08-16T20:03:51.914Z,99525.16
2022-08-16T20:06:35.800Z,99525.84
2022-08-16T20:09:05.465Z,99533.78
2022-08-16T20:11:31.885Z,99536.41
2022-08-16T20:13:59.307Z,99544.38
2022-08-16T20:16:25.762Z,99538.25
2022-08-16T20:18:52.155Z,99547.81
2022-08-16T20:21:19.369Z,99544.78
2022-08-16T20:23:45.806Z,99541.81
2022-08-16T20:26:12.207Z,99545.88
2022-08-16T20:28:53.966Z,99544.38
2022-08-16T20:31:25.338Z,99543.00
2022-08-16T20:33:53.023Z,99548.25
2022-08-16T20:36:19.421Z,99546.28
2022-08-16T20:38:47.372Z,99544.47
2022-08-16T20:41:15.718Z,99555.22
2022-08-16T20:43:42.498Z,99547.72
2022-08-16T20:46:09.678Z,99553.91
2022-08-16T20:48:36.545Z,99554.38
2022-08-16T20:51:04.069Z,99555.81
2022-08-16T20:53:30.489Z,99559.44
2022-08-16T20:55:56.922Z,99564.06
2022-08-16T20:58:23.293Z,99567.34
2022-08-16T21:00:50.102Z,99567.19
2022-08-16T21:03:16.753Z,99574.84
2022-08-16T21:05:45.217Z,99571.13
2022-08-16T21:08:51.143Z,99571.59
2022-08-16T21:11:00.423Z,99571.22
2022-08-16T21:13:30.569Z,99576.25
2022-08-16T21:15:57.749Z,99577.56
2022-08-16T21:18:24.683Z,99575.19
2022-08-16T21:20:51.183Z,99573.47
2022-08-16T21:23:17.877Z,99576.34
2022-08-16T21:25:52.765Z,99577.75
2022-08-16T21:28:40.137Z,99585.44
2022-08-16T21:31:10.763Z,99574.75
2022-08-16T21:33:37.449Z,99573.19
2022-08-16T21:36:04.286Z,99572.03
2022-08-16T21:38:31.251Z,99567.47
2022-08-16T21:40:59.962Z,99581.97
2022-08-16T21:43:31.592Z,99578.28
2022-08-16T21:45:58.657Z,99573.97
2022-08-16T21:48:34.805Z,99583.53
2022-08-16T21:51:08.255Z,99582.09
2022-08-16T21:53:35.995Z,99575.56
2022-08-16T21:56:05.738Z,99578.91
2022-08-16T21:58:32.219Z,99578.75
2022-08-16T22:00:59.590Z,99575.44
2022-08-16T22:03:26.172Z,99575.88
2022-08-16T22:06:05.896Z,99573.03
2022-08-16T22:08:49.588Z,99574.53
2022-08-16T22:11:21.967Z,99572.88
2022-08-16T22:13:51.487Z,99563.13
2022-08-16T22:16:27.926Z,99572.75
2022-08-16T22:18:54.509Z,99574.22
2022-08-16T22:21:21.302Z,99579.22
2022-08-16T22:23:57.153Z,99584.13
2022-08-16T22:26:34.547Z,99566.63
2022-08-16T22:29:05.729Z,99572.38
2022-08-16T22:31:33.032Z,99570.78
2022-08-16T22:34:01.617Z,99578.91
2022-08-16T22:36:28.999Z,99575.38
2022-08-16T22:39:00.680Z,99570.44
2022-08-16T22:41:29.549Z,99571.09
2022-08-16T22:43:56.511Z,99581.38
2022-08-16T22:46:23.284Z,99577.31
2022-08-16T22:48:50.912Z,99584.66
2022-08-16T22:51:23.082Z,99585.88
2022-08-16T22:53:50.083Z,99586.13
2022-08-16T22:56:17.469Z,99582.97
2022-08-16T22:58:45.075Z,99592.59
2022-08-16T23:01:13.441Z,99591.38
2022-08-16T23:03:41.031Z,99596.06
2022-08-16T23:06:08.762Z,99600.88
2022-08-16T23:08:39.434Z,99595.53
2022-08-16T23:11:12.214Z,99593.88
2022-08-16T23:13:53.057Z,99578.41
2022-08-16T23:16:33.343Z,99579.78
2022-08-16T23:19:12.875Z,99572.16
2022-08-16T23:21:44.325Z,99581.25
2022-08-16T23:24:11.982Z,99571.59
2022-08-16T23:26:45.919Z,99576.44
2022-08-16T23:29:21.134Z,99579.25
2022-08-16T23:31:53.348Z,99577.53
2022-08-16T23:34:20.573Z,99572.56
2022-08-16T23:36:46.964Z,99579.44
2022-08-16T23:39:13.374Z,99579.44
2022-08-16T23:41:40.381Z,99584.63
2022-08-16T23:44:54.963Z,99579.44
2022-08-16T23:46:53.177Z,99577.50
2022-08-16T23:49:58.840Z,99578.81
2022-08-16T23:52:07.752Z,99578.38
2022-08-16T23:54:35.873Z,99579.81
2022-08-16T23:57:02.656Z,99575.28
2022-08-16T23:59:29.097Z,99579.06
